Time;durP1;ratioP1;P1;durP2;ratioP2;P2;SDS_P1;SDS_P2;PMS_P1;PMS_P2;Temp;Humidity;BMP_temperature;BMP_pressure;BME280_temperature;BME280_humidity;BME280_pressure;Samples;Min_cycle;Max_cycle;Signal;HPM_P1;HPM_P2
2022/09/01 00:02:26;;;;;;;20.88;9.93;;;16.50;99.90;;;;;;5000172;28;20037;-73
2022/09/01 00:04:57;;;;;;;14.52;9.88;;;16.50;99.90;;;;;;4996072;28;20028;-73
2022/09/01 00:07:23;;;;;;;12.32;9.50;;;16.50;99.90;;;;;;4994658;28;20104;-73
2022/09/01 00:09:50;;;;;;;16.35;9.55;;;16.50;99.90;;;;;;4978739;28;20034;-72
2022/09/01 00:12:16;;;;;;;13.45;9.82;;;16.50;99.90;;;;;;4985737;28;20518;-72
2022/09/01 00:14:42;;;;;;;14.10;9.13;;;16.40;99.90;;;;;;4992131;28;20023;-78
2022/09/01 00:17:10;;;;;;;11.80;8.38;;;16.40;99.90;;;;;;4990246;28;20022;-77
2022/09/01 00:19:36;;;;;;;15.85;8.95;;;16.40;99.90;;;;;;4995097;28;20030;-79
2022/09/01 00:22:03;;;;;;;12.82;9.27;;;16.40;99.90;;;;;;4995731;28;20026;-79
2022/09/01 00:24:29;;;;;;;15.85;7.93;;;16.40;99.90;;;;;;4995613;28;20065;-77
2022/09/01 00:26:56;;;;;;;18.38;10.70;;;16.40;99.90;;;;;;4987142;28;20118;-77
2022/09/01 00:29:22;;;;;;;14.50;8.90;;;16.30;99.90;;;;;;4990823;28;20025;-77
2022/09/01 00:31:49;;;;;;;10.77;8.18;;;16.20;99.90;;;;;;4988885;28;20088;-76
2022/09/01 00:34:15;;;;;;;12.45;8.25;;;16.20;99.90;;;;;;4994224;28;20026;-77
2022/09/01 00:36:41;;;;;;;14.13;9.60;;;16.20;99.90;;;;;;5008996;28;20029;-77
2022/09/01 00:39:07;;;;;;;10.93;8.82;;;16.20;99.90;;;;;;5005905;28;20023;-77
2022/09/01 00:41:37;;;;;;;11.27;9.13;;;16.10;99.90;;;;;;4989344;28;20066;-77
2022/09/01 00:44:05;;;;;;;11.50;8.48;;;16.00;99.90;;;;;;4992978;28;20281;-80
2022/09/01 00:46:44;;;;;;;14.70;9.02;;;16.00;99.90;;;;;;5014514;28;20123;-78
2022/09/01 00:49:31;;;;;;;13.75;8.65;;;16.00;99.90;;;;;;5008337;28;20170;-79
2022/09/01 00:52:21;;;;;;;14.85;9.40;;;16.00;99.90;;;;;;5009809;28;20037;-76
2022/09/01 00:54:51;;;;;;;13.80;8.65;;;16.00;99.90;;;;;;4986865;28;20038;-77
2022/09/01 00:57:17;;;;;;;19.00;9.18;;;15.90;99.90;;;;;;4996066;28;20495;-77
2022/09/01 00:59:52;;;;;;;14.25;9.82;;;15.90;99.90;;;;;;4995897;28;20041;-77
2022/09/01 01:02:18;;;;;;;16.58;9.82;;;15.90;99.90;;;;;;5010849;28;20045;-79
2022/09/01 01:04:45;;;;;;;13.57;9.98;;;15.80;99.90;;;;;;4998663;28;20034;-78
2022/09/01 01:07:11;;;;;;;14.05;9.43;;;15.90;99.90;;;;;;4995307;28;20023;-80
2022/09/01 01:09:40;;;;;;;16.05;9.82;;;15.80;99.90;;;;;;5015113;28;20092;-81
2022/09/01 01:12:17;;;;;;;15.30;9.60;;;15.80;99.90;;;;;;4994199;28;20057;-81
2022/09/01 01:14:44;;;;;;;13.02;10.00;;;15.80;99.90;;;;;;4990704;28;20038;-80
2022/09/01 01:17:10;;;;;;;12.65;9.77;;;15.80;99.90;;;;;;4996138;28;20022;-80
2022/09/01 01:23:09;;;;;;;15.40;10.13;;;15.70;99.90;;;;;;4994511;28;20088;-81
2022/09/01 01:25:39;;;;;;;16.38;10.95;;;15.70;99.90;;;;;;4993376;28;20084;-81
2022/09/01 01:28:18;;;;;;;15.75;11.10;;;15.70;99.90;;;;;;4996853;28;20019;-81
2022/09/01 01:30:51;;;;;;;13.68;11.02;;;15.70;99.90;;;;;;5004429;28;20026;-83
2022/09/01 01:33:20;;;;;;;15.15;11.07;;;15.70;99.90;;;;;;5012725;28;20033;-81
2022/09/01 01:35:46;;;;;;;14.38;10.48;;;15.70;99.90;;;;;;5013944;28;20033;-80
2022/09/01 01:38:13;;;;;;;16.88;12.25;;;15.70;99.90;;;;;;4998863;28;20391;-80
2022/09/01 01:40:40;;;;;;;18.40;12.13;;;15.70;99.90;;;;;;4992159;28;20054;-79
2022/09/01 01:43:06;;;;;;;17.88;12.18;;;15.70;99.90;;;;;;5011903;28;20023;-80
2022/09/01 01:45:33;;;;;;;17.80;12.45;;;15.70;99.90;;;;;;5010040;28;20101;-79
2022/09/01 01:47:59;;;;;;;15.65;12.38;;;15.70;99.90;;;;;;5008490;28;20038;-80
2022/09/01 01:50:30;;;;;;;17.88;12.80;;;15.70;99.90;;;;;;4999644;28;20028;-79
2022/09/01 01:52:58;;;;;;;16.23;11.32;;;15.70;99.90;;;;;;5011080;28;20131;-81
2022/09/01 01:55:27;;;;;;;17.20;12.25;;;15.70;99.90;;;;;;4995404;28;20090;-80
2022/09/01 01:57:55;;;;;;;16.48;11.98;;;15.70;99.90;;;;;;4989801;28;20022;-82
2022/09/01 02:00:25;;;;;;;18.85;13.15;;;15.80;99.90;;;;;;4995242;28;20553;-80
2022/09/01 02:02:52;;;;;;;17.02;12.57;;;15.80;99.90;;;;;;4994441;28;20038;-82
2022/09/01 02:05:27;;;;;;;16.67;11.85;;;15.80;99.90;;;;;;4994871;28;20122;-81
2022/09/01 02:07:55;;;;;;;19.02;12.35;;;15.80;99.90;;;;;;4998000;28;20027;-82
2022/09/01 02:10:30;;;;;;;17.30;11.98;;;15.80;99.90;;;;;;5008938;28;20122;-81
2022/09/01 02:13:03;;;;;;;21.50;11.80;;;15.80;99.90;;;;;;4983825;28;20077;-81
2022/09/01 02:15:44;;;;;;;16.77;11.75;;;15.80;99.90;;;;;;5029405;28;20462;-82
2022/09/01 02:18:17;;;;;;;17.80;12.98;;;15.80;99.90;;;;;;5002032;28;20029;-80
2022/09/01 02:20:46;;;;;;;23.33;12.45;;;15.90;99.90;;;;;;5002149;28;20487;-82
2022/09/01 02:23:14;;;;;;;14.68;11.32;;;15.90;99.90;;;;;;5004376;28;20041;-81
2022/09/01 02:25:44;;;;;;;17.00;11.45;;;15.90;99.90;;;;;;4996382;28;20113;-82
2022/09/01 02:28:14;;;;;;;16.65;11.38;;;15.90;99.90;;;;;;5000788;28;20034;-81
2022/09/01 02:30:41;;;;;;;17.27;11.20;;;15.80;99.90;;;;;;5017639;28;20472;-82
2022/09/01 02:33:08;;;;;;;15.80;11.80;;;15.80;99.90;;;;;;5022425;28;20062;-81
2022/09/01 02:35:36;;;;;;;14.98;10.32;;;15.80;99.90;;;;;;5006304;28;20038;-82
2022/09/01 02:38:03;;;;;;;14.50;11.00;;;15.80;99.90;;;;;;5019552;28;20023;-80
2022/09/01 02:40:30;;;;;;;17.52;11.02;;;15.80;99.90;;;;;;5000098;28;20522;-81
2022/09/01 02:42:58;;;;;;;15.77;10.98;;;15.80;99.90;;;;;;5004249;28;20090;-81
2022/09/01 02:45:24;;;;;;;17.25;10.55;;;15.80;99.90;;;;;;5007374;28;20097;-81
2022/09/01 02:47:51;;;;;;;17.27;10.13;;;15.70;99.90;;;;;;5006544;28;20022;-80
2022/09/01 02:50:18;;;;;;;16.38;9.60;;;15.60;99.90;;;;;;5005667;28;19998;-81
2022/09/01 02:52:47;;;;;;;14.52;10.35;;;15.60;99.90;;;;;;5001148;28;20029;-83
2022/09/01 02:55:16;;;;;;;13.60;10.73;;;15.60;99.90;;;;;;4993962;28;20091;-79
2022/09/01 02:57:42;;;;;;;13.57;9.55;;;15.50;99.90;;;;;;4995498;28;20062;-81
2022/09/01 03:00:19;;;;;;;14.15;10.77;;;15.50;99.90;;;;;;5016385;28;20053;-81
2022/09/01 03:02:47;;;;;;;12.95;10.00;;;15.50;99.90;;;;;;4999438;28;20080;-83
2022/09/01 03:05:15;;;;;;;15.60;10.10;;;15.50;99.90;;;;;;5016029;28;20023;-81
2022/09/01 03:07:41;;;;;;;15.23;9.55;;;15.50;99.90;;;;;;5016440;28;20222;-81
2022/09/01 03:10:08;;;;;;;13.73;9.45;;;15.40;99.90;;;;;;5016669;28;20159;-81
2022/09/01 03:12:34;;;;;;;13.27;8.52;;;15.50;99.90;;;;;;5004187;28;20022;-82
2022/09/01 03:15:00;;;;;;;13.07;9.20;;;15.50;99.90;;;;;;5003411;28;20069;-81
2022/09/01 03:17:26;;;;;;;16.10;9.07;;;15.50;99.90;;;;;;4997654;28;20022;-82
2022/09/01 03:19:53;;;;;;;15.02;10.38;;;15.40;99.90;;;;;;4999951;28;20044;-80
2022/09/01 03:22:19;;;;;;;13.45;10.63;;;15.40;99.90;;;;;;4996698;28;20030;-80
2022/09/01 03:24:45;;;;;;;13.55;10.25;;;15.30;99.90;;;;;;5001712;28;20427;-80
2022/09/01 03:27:10;;;;;;;16.23;10.30;;;15.30;99.90;;;;;;4999741;28;20022;-81
2022/09/01 03:29:37;;;;;;;16.17;10.45;;;15.30;99.90;;;;;;5016960;28;20057;-81
2022/09/01 03:32:03;;;;;;;13.95;10.07;;;15.30;99.90;;;;;;4996863;28;20013;-81
2022/09/01 03:34:33;;;;;;;18.08;10.20;;;15.30;99.90;;;;;;4999714;28;20573;-81
2022/09/01 03:36:59;;;;;;;14.48;10.27;;;15.30;99.90;;;;;;4993898;28;20570;-83
2022/09/01 03:39:24;;;;;;;15.40;9.88;;;15.30;99.90;;;;;;4991915;28;20026;-83
2022/09/01 03:41:50;;;;;;;14.90;9.57;;;15.40;99.90;;;;;;4997096;28;20164;-81
2022/09/01 03:44:16;;;;;;;14.85;9.98;;;15.40;99.90;;;;;;5011257;28;20058;-81
2022/09/01 03:46:42;;;;;;;15.98;10.50;;;15.40;99.90;;;;;;4997405;28;20117;-82
2022/09/01 03:49:15;;;;;;;16.20;10.52;;;15.40;99.90;;;;;;5001347;28;20562;-79
2022/09/01 03:51:43;;;;;;;14.53;9.70;;;15.40;99.90;;;;;;4997380;28;20040;-79
2022/09/01 03:54:09;;;;;;;13.65;9.05;;;15.50;99.90;;;;;;5009803;28;20616;-81
2022/09/01 03:56:37;;;;;;;13.90;9.40;;;15.50;99.90;;;;;;4999206;28;20026;-80
2022/09/01 03:59:03;;;;;;;14.65;10.50;;;15.50;99.90;;;;;;5000984;28;20017;-81
2022/09/01 04:01:36;;;;;;;17.00;9.77;;;15.50;99.90;;;;;;5014527;28;20037;-81
2022/09/01 04:04:03;;;;;;;13.15;9.57;;;15.50;99.90;;;;;;5014320;28;20119;-81
2022/09/01 04:06:29;;;;;;;12.82;9.48;;;15.50;99.90;;;;;;5000316;28;20038;-81
2022/09/01 04:09:01;;;;;;;13.50;9.15;;;15.50;99.90;;;;;;4995410;28;20054;-82
2022/09/01 04:11:27;;;;;;;10.18;8.32;;;15.50;99.90;;;;;;4997783;28;20033;-80
2022/09/01 04:13:53;;;;;;;12.85;9.55;;;15.50;99.90;;;;;;5009357;28;20134;-80
2022/09/01 04:19:18;;;;;;;12.93;9.13;;;15.50;99.90;;;;;;4996646;28;20113;-80
2022/09/01 04:21:53;;;;;;;16.15;9.70;;;15.60;99.90;;;;;;4998805;28;20554;-80
2022/09/01 04:24:19;;;;;;;11.85;9.35;;;15.60;99.90;;;;;;4995466;28;20022;-81
2022/09/01 04:26:48;;;;;;;14.95;10.27;;;15.60;99.90;;;;;;4996700;28;20040;-80
2022/09/01 04:29:17;;;;;;;15.77;10.35;;;15.60;99.90;;;;;;5011831;28;20026;-80
2022/09/01 04:31:43;;;;;;;14.40;9.63;;;15.50;99.90;;;;;;5012773;28;20054;-80
2022/09/01 04:34:12;;;;;;;15.18;10.20;;;15.50;99.90;;;;;;5008723;28;20070;-80
2022/09/01 04:36:40;;;;;;;13.88;10.15;;;15.50;99.90;;;;;;4996923;28;20031;-80
2022/09/01 04:39:08;;;;;;;13.45;9.85;;;15.50;99.90;;;;;;4995104;28;20019;-80
2022/09/01 04:41:36;;;;;;;15.43;10.73;;;15.40;99.90;;;;;;5012515;28;20042;-80
2022/09/01 04:44:05;;;;;;;16.40;10.65;;;15.40;99.90;;;;;;5000942;28;20117;-81
2022/09/01 04:46:34;;;;;;;13.60;10.43;;;15.40;99.90;;;;;;4993908;28;20026;-81
2022/09/01 04:49:08;;;;;;;18.02;10.98;;;15.30;99.90;;;;;;5010084;28;20037;-80
2022/09/01 04:51:37;;;;;;;;;;;15.30;99.90;;;;;;5011588;28;20101;-80
2022/09/01 04:54:04;;;;;;;17.83;10.27;;;15.30;99.90;;;;;;5007826;28;19910;-78
2022/09/01 04:56:34;;;;;;;18.00;12.10;;;15.20;99.90;;;;;;4993446;28;20045;-78
2022/09/01 04:59:00;;;;;;;16.98;12.35;;;15.20;99.90;;;;;;5013691;28;20034;-79
2022/09/01 05:01:26;;;;;;;14.45;10.77;;;15.20;99.90;;;;;;4997829;28;20041;-79
2022/09/01 05:04:00;;;;;;;16.33;11.95;;;15.20;99.90;;;;;;4996286;28;20105;-82
2022/09/01 05:06:27;;;;;;;17.17;11.05;;;15.20;99.90;;;;;;4996383;28;20022;-81
2022/09/01 05:08:56;;;;;;;14.52;11.40;;;15.10;99.90;;;;;;5013408;28;20040;-80
2022/09/01 05:11:22;;;;;;;16.52;11.45;;;15.10;99.90;;;;;;4995683;28;20064;-81
2022/09/01 05:13:49;;;;;;;15.10;11.25;;;15.10;99.90;;;;;;4997594;28;20052;-82
2022/09/01 05:16:20;;;;;;;18.48;10.73;;;15.10;99.90;;;;;;4991206;28;20069;-82
2022/09/01 05:18:47;;;;;;;16.80;11.70;;;15.10;99.90;;;;;;4993652;28;20033;-81
2022/09/01 05:21:16;;;;;;;15.90;10.27;;;15.10;99.90;;;;;;4997123;28;20030;-81
2022/09/01 05:23:45;;;;;;;18.50;11.65;;;15.10;99.90;;;;;;4996599;28;20017;-80
2022/09/01 05:26:20;;;;;;;18.25;11.57;;;15.10;99.90;;;;;;5009210;28;20026;-82
2022/09/01 05:28:49;;;;;;;17.45;10.95;;;15.10;99.90;;;;;;5010256;28;20064;-80
2022/09/01 05:31:18;;;;;;;14.95;10.70;;;15.20;99.90;;;;;;4988179;28;20027;-79
2022/09/01 05:33:48;;;;;;;14.43;10.63;;;15.20;99.90;;;;;;5013194;28;20021;-80
2022/09/01 05:36:16;;;;;;;14.75;10.80;;;15.30;99.90;;;;;;5011335;28;20114;-80
2022/09/01 05:38:43;;;;;;;16.17;12.00;;;15.30;99.90;;;;;;5025864;28;20022;-79
2022/09/01 05:41:13;;;;;;;13.75;10.07;;;15.40;99.90;;;;;;5007794;28;20562;-81
2022/09/01 05:43:45;;;;;;;13.75;10.30;;;15.50;99.90;;;;;;4997278;28;20026;-80
2022/09/01 05:46:17;;;;;;;16.92;11.18;;;15.60;99.90;;;;;;5011497;28;20037;-82
2022/09/01 05:48:44;;;;;;;14.60;11.20;;;15.60;99.90;;;;;;4997678;28;20493;-79
2022/09/01 05:51:15;;;;;;;15.65;11.75;;;15.70;99.90;;;;;;5015530;28;20049;-79
2022/09/01 05:53:42;;;;;;;17.02;11.43;;;15.70;99.90;;;;;;4996909;28;20113;-73
2022/09/01 05:56:12;;;;;;;15.43;11.63;;;15.70;99.90;;;;;;5010524;28;20022;-72
2022/09/01 05:58:39;;;;;;;16.20;11.60;;;15.80;99.90;;;;;;4998299;28;20022;-72
2022/09/01 06:01:06;;;;;;;15.35;10.75;;;15.80;99.90;;;;;;4994363;28;20032;-73
2022/09/01 06:03:32;;;;;;;18.77;10.95;;;15.90;99.90;;;;;;5011800;28;20030;-74
2022/09/01 06:06:08;;;;;;;14.57;10.82;;;15.90;99.90;;;;;;4992705;28;20080;-74
2022/09/01 06:08:35;;;;;;;14.88;11.10;;;15.90;99.90;;;;;;4995262;28;20031;-73
2022/09/01 06:11:02;;;;;;;19.00;12.00;;;16.00;99.90;;;;;;4993159;28;20073;-74
2022/09/01 06:13:28;;;;;;;17.92;12.00;;;15.90;99.90;;;;;;4992945;28;20467;-73
2022/09/01 06:15:57;;;;;;;17.13;12.00;;;15.90;99.90;;;;;;4987084;28;20364;-74
2022/09/01 06:18:23;;;;;;;17.13;12.15;;;15.90;99.90;;;;;;5008934;28;20101;-74
2022/09/01 06:20:49;;;;;;;16.30;12.02;;;16.00;99.90;;;;;;4997007;28;20070;-80
2022/09/01 06:23:16;;;;;;;16.85;12.85;;;16.10;99.90;;;;;;4999406;28;20034;-80
2022/09/01 06:25:45;;;;;;;15.13;11.10;;;16.10;99.90;;;;;;4995116;28;20026;-80
2022/09/01 06:28:20;;;;;;;16.83;12.48;;;16.20;99.90;;;;;;4994146;28;20019;-80
2022/09/01 06:30:47;;;;;;;14.18;11.00;;;16.20;99.90;;;;;;4997821;28;20049;-81
2022/09/01 06:33:14;;;;;;;15.40;11.65;;;16.30;99.90;;;;;;5009537;28;20419;-81
2022/09/01 06:35:43;;;;;;;19.67;12.00;;;16.30;99.90;;;;;;4998889;28;20031;-81
2022/09/01 06:38:11;;;;;;;15.30;11.27;;;16.40;99.90;;;;;;5007932;28;20033;-81
2022/09/01 06:40:39;;;;;;;16.95;12.40;;;16.50;99.90;;;;;;4997024;28;20520;-79
2022/09/01 06:43:06;;;;;;;17.17;11.57;;;16.50;99.90;;;;;;4996755;28;20062;-79
2022/09/01 06:45:40;;;;;;;15.20;12.25;;;16.50;99.90;;;;;;4994774;28;20019;-79
2022/09/01 06:48:06;;;;;;;17.73;12.82;;;16.60;99.90;;;;;;4994485;28;20041;-80
2022/09/01 06:50:33;;;;;;;16.92;12.05;;;16.60;99.90;;;;;;4999112;28;20042;-79
2022/09/01 06:53:09;;;;;;;19.73;12.50;;;16.70;99.90;;;;;;4993045;28;20049;-79
2022/09/01 06:55:37;;;;;;;19.73;14.20;;;16.70;99.90;;;;;;4997340;28;20699;-80
2022/09/01 06:58:08;;;;;;;19.00;13.05;;;16.70;99.90;;;;;;5002423;28;20018;-79
2022/09/01 07:00:40;;;;;;;20.83;13.27;;;16.80;99.90;;;;;;4997645;28;20030;-79
2022/09/01 07:03:08;;;;;;;21.50;13.73;;;16.80;99.90;;;;;;4997661;28;20034;-78
2022/09/01 07:05:38;;;;;;;19.23;13.38;;;16.90;99.90;;;;;;5012688;28;20026;-79
2022/09/01 07:08:07;;;;;;;17.75;12.00;;;17.00;99.90;;;;;;4998884;23;20093;-72
2022/09/01 07:10:32;;;;;;;18.65;13.13;;;17.00;99.90;;;;;;5000775;28;20442;-73
2022/09/01 07:13:00;;;;;;;20.02;14.27;;;17.10;99.90;;;;;;4987881;28;20395;-72
2022/09/01 07:15:29;;;;;;;20.25;13.95;;;17.10;99.90;;;;;;5004492;28;20038;-71
2022/09/01 07:17:57;;;;;;;21.40;14.50;;;17.10;99.90;;;;;;4976442;28;20022;-73
2022/09/01 07:20:25;;;;;;;22.20;13.75;;;17.10;99.90;;;;;;4973711;28;20376;-72
2022/09/01 07:22:54;;;;;;;18.63;13.43;;;17.20;99.90;;;;;;4989957;28;20019;-73
2022/09/01 07:25:19;;;;;;;17.80;14.27;;;17.30;99.90;;;;;;4985008;28;20023;-72
2022/09/01 07:27:49;;;;;;;22.25;15.15;;;17.40;99.90;;;;;;4969019;28;20054;-72
2022/09/01 07:30:18;;;;;;;18.85;14.60;;;17.50;99.90;;;;;;4974172;28;20026;-72
2022/09/01 07:32:45;;;;;;;18.45;14.55;;;17.60;99.90;;;;;;4971963;28;20030;-72
2022/09/01 07:35:18;;;;;;;21.40;14.48;;;17.60;99.90;;;;;;4971256;28;20015;-72
2022/09/01 07:37:46;;;;;;;19.95;13.73;;;17.60;99.90;;;;;;4971383;28;20027;-72
2022/09/01 07:40:17;;;;;;;18.65;13.38;;;17.70;99.90;;;;;;4969915;28;20074;-72
2022/09/01 07:42:46;;;;;;;21.65;15.18;;;17.70;99.90;;;;;;4969927;28;20026;-72
2022/09/01 07:45:14;;;;;;;19.67;14.45;;;17.70;99.90;;;;;;4967717;28;20077;-71
2022/09/01 07:47:41;;;;;;;18.83;13.38;;;17.70;99.90;;;;;;4969784;28;20023;-72
2022/09/01 07:50:11;;;;;;;20.10;13.93;;;17.80;99.90;;;;;;4986167;28;20031;-73
2022/09/01 07:52:42;;;;;;;21.40;14.13;;;17.80;99.90;;;;;;4974651;28;20042;-72
2022/09/01 07:55:15;;;;;;;22.15;14.23;;;17.80;99.90;;;;;;4975244;28;20089;-72
2022/09/01 07:57:44;;;;;;;18.83;13.45;;;17.90;99.90;;;;;;4981674;28;21120;-72
2022/09/01 08:00:12;;;;;;;23.45;13.88;;;18.10;99.90;;;;;;4966458;28;20076;-72
2022/09/01 08:02:39;;;;;;;16.38;13.00;;;18.20;99.90;;;;;;4962702;28;20027;-72
2022/09/01 08:05:07;;;;;;;18.67;13.55;;;18.30;99.90;;;;;;4960100;28;20428;-72
2022/09/01 08:07:37;;;;;;;16.15;11.43;;;18.30;99.90;;;;;;4971183;28;20034;-70
2022/09/01 08:10:04;;;;;;;17.50;11.30;;;18.40;99.90;;;;;;4976236;28;20031;-71
2022/09/01 08:12:34;;;;;;;15.43;10.93;;;18.30;99.90;;;;;;4972040;28;20130;-72
2022/09/01 08:15:07;;;;;;;16.02;9.70;;;18.30;99.90;;;;;;4988442;28;20037;-72
2022/09/01 08:17:33;;;;;;;15.23;11.00;;;18.20;99.90;;;;;;4970530;28;20144;-72
2022/09/01 08:20:00;;;;;;;16.38;12.35;;;18.30;99.90;;;;;;4972104;28;20035;-71
2022/09/01 08:22:25;;;;;;;17.63;11.23;;;18.30;99.90;;;;;;4970301;28;20564;-71
2022/09/01 08:24:52;;;;;;;17.58;11.38;;;18.30;99.90;;;;;;4969066;28;20105;-72
2022/09/01 08:27:18;;;;;;;14.93;10.73;;;18.30;99.90;;;;;;4987986;28;20058;-71
2022/09/01 08:29:44;;;;;;;17.33;10.82;;;18.30;99.90;;;;;;4966382;28;20475;-72
2022/09/01 08:32:13;;;;;;;14.88;10.90;;;18.40;99.90;;;;;;4969596;28;20031;-72
2022/09/01 08:34:39;;;;;;;17.30;10.98;;;18.40;99.90;;;;;;4972657;28;20033;-71
2022/09/01 08:37:05;;;;;;;16.02;11.48;;;18.40;99.90;;;;;;4970304;28;20039;-72
2022/09/01 08:39:31;;;;;;;14.15;9.90;;;18.40;99.90;;;;;;4969439;28;20500;-73
2022/09/01 08:42:18;;;;;;;15.73;10.75;;;18.30;99.90;;;;;;4983616;28;20034;-71
2022/09/01 08:44:55;;;;;;;16.38;10.77;;;18.30;99.90;;;;;;4973280;28;20073;-73
2022/09/01 08:47:21;;;;;;;16.02;10.27;;;18.30;99.90;;;;;;4974010;28;20112;-73
2022/09/01 08:49:49;;;;;;;19.73;10.25;;;18.40;99.90;;;;;;4967898;28;20038;-72
2022/09/01 08:52:40;;;;;;;12.63;9.45;;;18.30;99.90;;;;;;4967120;28;20037;-73
2022/09/01 08:55:26;;;;;;;10.85;8.90;;;18.30;99.90;;;;;;4971483;28;20121;-73
2022/09/01 08:57:54;;;;;;;11.77;9.25;;;18.30;99.90;;;;;;4965943;28;20023;-73
2022/09/01 09:00:24;;;;;;;16.80;8.63;;;18.40;99.90;;;;;;4985953;28;20983;-72
2022/09/01 09:03:15;;;;;;;11.45;8.40;;;18.60;99.90;;;;;;4966763;28;20598;-73
2022/09/01 09:06:13;;;;;;;10.90;8.23;;;18.60;99.90;;;;;;4969933;28;20023;-73
2022/09/01 09:09:02;;;;;;;9.98;8.00;;;18.80;99.90;;;;;;4971361;28;20039;-72
2022/09/01 09:11:44;;;;;;;10.30;7.80;;;18.90;99.90;;;;;;4970462;28;20023;-73
2022/09/01 09:14:31;;;;;;;10.02;7.28;;;19.00;99.90;;;;;;4970054;28;20019;-73
2022/09/01 09:16:57;;;;;;;7.18;5.57;;;19.00;99.90;;;;;;4973528;28;20106;-71
2022/09/01 09:19:36;;;;;;;8.93;5.50;;;19.10;99.90;;;;;;4970013;28;20122;-71
2022/09/01 09:22:05;;;;;;;7.78;5.28;;;19.00;99.90;;;;;;4971139;28;20038;-72
2022/09/01 09:24:51;;;;;;;6.97;4.90;;;19.10;99.90;;;;;;4971083;28;20031;-72
2022/09/01 09:27:17;;;;;;;7.07;5.30;;;19.20;99.90;;;;;;4978372;28;20027;-72
2022/09/01 09:29:45;;;;;;;5.88;3.55;;;19.20;99.90;;;;;;4966791;28;20524;-72
2022/09/01 09:32:11;;;;;;;4.18;3.13;;;19.40;99.90;;;;;;4967148;28;20463;-71
2022/09/01 09:34:40;;;;;;;3.72;2.50;;;19.50;99.90;;;;;;4969121;28;20023;-72
2022/09/01 09:37:27;;;;;;;3.72;2.78;;;19.60;99.90;;;;;;4981871;28;20119;-72
2022/09/01 09:40:13;;;;;;;3.42;2.50;;;19.80;99.90;;;;;;4962413;28;20037;-72
2022/09/01 09:42:41;;;;;;;3.58;2.63;;;19.90;99.90;;;;;;4961734;28;20031;-72
2022/09/01 09:45:28;;;;;;;3.25;2.20;;;20.00;99.90;;;;;;4966127;28;20023;-72
2022/09/01 09:47:56;;;;;;;4.05;2.72;;;20.10;99.90;;;;;;4967176;28;20027;-72
2022/09/01 09:50:31;;;;;;;5.85;2.50;;;20.20;99.90;;;;;;4983529;28;20035;-72
2022/09/01 09:53:15;;;;;;;3.70;2.42;;;20.30;99.90;;;;;;4991798;28;20145;-73
2022/09/01 09:55:52;;;;;;;;;;;20.40;99.90;;;;;;4977757;28;20026;-73
2022/09/01 09:58:25;;;;;;;5.40;2.40;;;20.50;99.90;;;;;;4964861;28;19910;-72
2022/09/01 10:01:13;;;;;;;3.60;2.63;;;20.60;99.90;;;;;;4965206;28;20039;-72
2022/09/01 10:03:48;;;;;;;3.53;2.97;;;20.60;99.90;;;;;;4964090;28;20023;-71
2022/09/01 10:06:32;;;;;;;3.97;2.53;;;20.70;99.90;;;;;;4968255;28;20057;-72
2022/09/01 10:09:01;;;;;;;4.53;2.58;;;20.80;99.90;;;;;;4968671;28;20031;-74
2022/09/01 10:11:43;;;;;;;3.65;2.58;;;20.90;99.90;;;;;;4967680;28;20027;-72
2022/09/01 10:14:22;;;;;;;5.25;3.17;;;21.00;99.90;;;;;;4963433;28;20077;-72
2022/09/01 10:16:57;;;;;;;2.92;2.30;;;21.20;99.90;;;;;;4969393;28;20043;-72
2022/09/01 10:19:26;;;;;;;4.93;2.65;;;21.30;99.90;;;;;;4966155;28;20041;-72
2022/09/01 10:21:52;;;;;;;3.92;2.45;;;21.40;99.90;;;;;;4964299;28;20135;-73
2022/09/01 10:24:30;;;;;;;2.13;1.92;;;21.40;99.90;;;;;;4968569;28;20023;-73
2022/09/01 10:27:02;;;;;;;3.60;2.50;;;21.40;99.90;;;;;;4970509;28;21248;-73
2022/09/01 10:29:31;;;;;;;2.75;2.30;;;21.50;99.90;;;;;;4969033;28;20042;-72
2022/09/01 10:31:59;;;;;;;2.67;2.30;;;21.40;99.90;;;;;;4968873;28;20019;-73
2022/09/01 10:34:29;;;;;;;3.75;2.15;;;21.40;99.90;;;;;;4973143;28;20023;-72
2022/09/01 10:36:56;;;;;;;3.92;2.47;;;21.30;99.90;;;;;;4968847;28;20042;-72
2022/09/01 10:39:21;;;;;;;4.05;2.63;;;21.20;99.90;;;;;;4977669;28;20031;-72
2022/09/01 10:41:57;;;;;;;2.95;2.13;;;21.20;99.90;;;;;;4972614;28;20073;-71
2022/09/01 10:44:33;;;;;;;3.88;2.63;;;21.10;99.90;;;;;;4988510;28;20199;-72
2022/09/01 10:47:28;;;;;;;3.88;2.80;;;21.10;99.90;;;;;;4969031;28;20054;-73
2022/09/01 10:49:54;;;;;;;3.17;2.40;;;21.10;99.90;;;;;;4970718;28;20042;-71
2022/09/01 10:52:41;;;;;;;3.22;2.42;;;21.20;99.90;;;;;;4969125;28;20038;-72
2022/09/01 10:55:20;;;;;;;6.03;3.25;;;21.40;99.90;;;;;;4970112;28;20379;-71
2022/09/01 10:58:05;;;;;;;3.80;3.05;;;21.30;99.90;;;;;;4969125;28;20029;-71
2022/09/01 11:00:30;;;;;;;4.32;2.50;;;21.20;99.90;;;;;;4972723;28;20416;-72
2022/09/01 11:03:11;;;;;;;4.60;2.92;;;21.10;99.90;;;;;;4978896;28;20019;-70
2022/09/01 11:06:03;;;;;;;4.20;2.95;;;21.20;99.90;;;;;;4970463;28;20498;-71
2022/09/01 11:08:28;;;;;;;2.63;2.28;;;21.20;99.90;;;;;;4969001;28;20034;-71
2022/09/01 11:11:07;;;;;;;4.22;2.30;;;21.20;99.90;;;;;;4971832;28;20086;-71
2022/09/01 11:13:57;;;;;;;3.67;2.75;;;21.20;99.90;;;;;;4985936;28;20126;-73
2022/09/01 11:16:32;;;;;;;4.78;2.88;;;21.20;99.90;;;;;;4977186;28;20081;-72
2022/09/01 11:19:30;;;;;;;3.67;2.80;;;21.30;99.90;;;;;;4968977;28;20019;-72
2022/09/01 11:22:24;;;;;;;4.03;3.03;;;21.20;99.90;;;;;;4971133;28;20090;-71
2022/09/01 11:25:32;;;;;;;3.13;2.67;;;21.30;99.90;;;;;;4973544;28;20462;-72
2022/09/01 11:28:04;;;;;;;3.35;2.65;;;21.30;99.90;;;;;;4979934;28;20038;-75
2022/09/01 11:30:29;;;;;;;3.92;2.60;;;21.40;99.90;;;;;;4969353;28;20491;-71
2022/09/01 11:33:08;;;;;;;2.55;2.35;;;21.50;99.90;;;;;;4967881;28;20034;-76
2022/09/01 11:35:34;;;;;;;4.75;3.00;;;21.50;98.90;;;;;;4965408;28;20487;-70
2022/09/01 11:38:05;;;;;;;3.15;2.78;;;21.50;99.40;;;;;;4981154;28;20027;-69
2022/09/01 11:40:33;;;;;;;3.55;2.70;;;21.60;99.30;;;;;;4965272;28;20031;-69
2022/09/01 11:43:14;;;;;;;2.90;2.60;;;21.60;98.70;;;;;;4964803;28;20054;-69
2022/09/01 11:46:15;;;;;;;3.95;2.78;;;21.60;98.60;;;;;;4969320;28;20029;-69
2022/09/01 11:48:46;;;;;;;4.68;2.75;;;21.70;98.90;;;;;;4970462;28;20022;-70
2022/09/01 11:51:14;;;;;;;3.22;2.92;;;21.60;98.80;;;;;;4968147;28;20054;-69
2022/09/01 11:53:41;;;;;;;4.43;3.13;;;21.60;98.80;;;;;;4985626;28;20472;-69
2022/09/01 11:56:33;;;;;;;4.88;2.72;;;21.60;98.60;;;;;;4973060;28;20022;-70
2022/09/01 11:58:59;;;;;;;3.67;2.90;;;21.50;98.20;;;;;;4963383;28;20056;-71
2022/09/01 12:01:34;;;;;;;3.40;2.72;;;21.50;98.00;;;;;;4967323;28;20034;-71
2022/09/01 12:04:17;;;;;;;3.22;2.67;;;21.50;97.70;;;;;;4959400;28;20042;-70
2022/09/01 12:06:51;;;;;;;3.10;2.47;;;21.50;97.60;;;;;;4966977;28;20446;-69
2022/09/01 12:09:17;;;;;;;2.95;2.38;;;21.50;97.60;;;;;;4966858;28;20030;-70
2022/09/01 12:11:43;;;;;;;3.83;3.17;;;21.50;98.00;;;;;;4966101;28;20038;-70
2022/09/01 12:14:18;;;;;;;2.65;2.10;;;21.40;98.10;;;;;;4965739;28;20023;-68
2022/09/01 12:16:44;;;;;;;3.20;2.90;;;21.40;98.40;;;;;;4964429;28;20027;-69
2022/09/01 12:19:24;;;;;;;3.00;2.70;;;21.30;98.30;;;;;;4966177;28;20034;-69
2022/09/01 12:21:59;;;;;;;4.25;3.20;;;21.30;98.40;;;;;;4966468;28;20038;-70
2022/09/01 12:24:25;;;;;;;3.28;2.50;;;21.40;98.90;;;;;;4963880;28;20034;-69
2022/09/01 12:26:54;;;;;;;3.03;2.55;;;21.40;98.70;;;;;;4979182;28;20039;-70
2022/09/01 12:29:21;;;;;;;2.60;2.33;;;21.50;98.60;;;;;;4980797;28;20077;-71
2022/09/01 12:31:49;;;;;;;4.75;2.75;;;21.50;98.10;;;;;;4968119;28;20034;-69
2022/09/01 12:34:33;;;;;;;3.10;2.30;;;21.40;97.70;;;;;;4968673;28;20030;-73
2022/09/01 12:37:07;;;;;;;2.88;2.28;;;21.40;98.00;;;;;;4966837;28;20037;-71
2022/09/01 12:39:41;;;;;;;3.38;2.70;;;21.40;98.20;;;;;;4967042;28;20484;-72
2022/09/01 12:42:40;;;;;;;3.03;2.45;;;21.40;98.40;;;;;;4967633;28;20454;-71
2022/09/01 12:45:08;;;;;;;3.95;2.65;;;21.40;98.20;;;;;;4966836;28;20046;-71
2022/09/01 12:47:46;;;;;;;2.88;2.50;;;21.40;98.20;;;;;;4968906;28;20062;-71
2022/09/01 12:50:11;;;;;;;5.18;2.80;;;21.40;97.60;;;;;;4969092;28;20856;-73
2022/09/01 12:52:53;;;;;;;2.60;2.20;;;21.50;97.40;;;;;;4968028;28;20035;-72
2022/09/01 12:55:22;;;;;;;3.28;2.42;;;21.50;97.30;;;;;;4965016;28;21081;-72
2022/09/01 12:57:57;;;;;;;3.15;2.40;;;21.60;97.30;;;;;;4967979;28;20030;-72
2022/09/01 13:00:29;;;;;;;2.30;2.10;;;21.70;97.40;;;;;;4967992;28;20035;-71
2022/09/01 13:03:01;;;;;;;5.53;2.67;;;21.90;96.90;;;;;;4967097;28;20023;-71